createdAt,value
2023-04-28T00:01:50.757Z,72.93
2023-04-28T00:04:17.592Z,72.31
2023-04-28T00:06:44.459Z,72.46
2023-04-28T00:09:11.064Z,71.97
2023-04-28T00:11:38.526Z,72.74
2023-04-28T00:14:05.504Z,73.30
2023-04-28T00:16:32.114Z,73.43
2023-04-28T00:18:58.614Z,73.25
2023-04-28T00:21:25.022Z,73.08
2023-04-28T00:23:51.450Z,73.75
2023-04-28T00:26:17.853Z,73.47
2023-04-28T00:28:44.288Z,73.05
2023-04-28T00:31:12.510Z,73.85
2023-04-28T00:33:39.903Z,73.98
2023-04-28T00:36:07.037Z,73.00
2023-04-28T00:38:33.447Z,73.42
2023-04-28T00:40:59.905Z,73.33
2023-04-28T00:43:26.620Z,73.57
2023-04-28T00:45:53.390Z,73.55
2023-04-28T00:48:20.153Z,74.06
2023-04-28T00:50:48.362Z,74.23
2023-04-28T00:53:14.806Z,73.96
2023-04-28T00:55:41.392Z,73.86
2023-04-28T00:58:08.417Z,73.21
2023-04-28T01:00:35.221Z,73.98
2023-04-28T01:03:02.084Z,73.75
2023-04-28T01:05:34.088Z,73.36
2023-04-28T01:08:00.565Z,74.00
2023-04-28T01:10:26.963Z,74.61
2023-04-28T01:12:53.512Z,74.33
2023-04-28T01:15:21.292Z,74.21
2023-04-28T01:17:52.422Z,73.27
2023-04-28T01:20:18.858Z,74.13
2023-04-28T01:22:45.410Z,74.21
2023-04-28T01:25:11.907Z,74.38
2023-04-28T01:27:38.318Z,74.29
2023-04-28T01:30:05.443Z,74.22
2023-04-28T01:32:31.970Z,73.96
2023-04-28T01:34:58.428Z,73.81
2023-04-28T01:37:24.857Z,73.06
2023-04-28T01:39:51.248Z,73.75
2023-04-28T01:42:18.449Z,74.12
2023-04-28T01:44:45.498Z,74.20
2023-04-28T01:47:12.023Z,74.99
2023-04-28T01:49:38.440Z,73.78
2023-04-28T01:52:07.593Z,74.63
2023-04-28T01:54:34.062Z,74.80
2023-04-28T01:57:00.590Z,73.78
2023-04-28T01:59:27.266Z,74.12
2023-04-28T02:01:53.810Z,74.22
2023-04-28T02:04:20.533Z,75.04
2023-04-28T02:06:47.058Z,74.79
2023-04-28T02:09:13.539Z,75.31
2023-04-28T02:11:39.947Z,74.57
2023-04-28T02:14:06.443Z,74.30
2023-04-28T02:16:33.783Z,74.00
2023-04-28T02:19:00.564Z,74.58
2023-04-28T02:21:28.023Z,73.54
2023-04-28T02:23:54.412Z,73.92
2023-04-28T02:26:20.819Z,74.75
2023-04-28T02:28:51.382Z,74.51
2023-04-28T02:31:17.857Z,74.17
2023-04-28T02:33:45.574Z,74.26
2023-04-28T02:36:12.171Z,75.01
2023-04-28T02:38:41.419Z,74.54
2023-04-28T02:41:09.397Z,74.75
2023-04-28T02:43:37.496Z,73.91
2023-04-28T02:46:04.650Z,73.96
2023-04-28T02:48:31.600Z,73.78
2023-04-28T02:50:58.024Z,74.59
2023-04-28T02:53:24.425Z,74.85
2023-04-28T02:55:51.053Z,74.23
2023-04-28T02:58:18.229Z,74.51
2023-04-28T03:00:45.751Z,74.68
2023-04-28T03:03:12.988Z,74.82
2023-04-28T03:05:39.750Z,75.55
2023-04-28T03:08:06.302Z,75.13
2023-04-28T03:10:32.716Z,75.48
2023-04-28T03:13:00.370Z,75.21
2023-04-28T03:15:27.034Z,74.67
2023-04-28T03:17:53.684Z,75.41
2023-04-28T03:20:20.184Z,75.60
2023-04-28T03:22:46.597Z,76.05
2023-04-28T03:25:13.187Z,76.36
2023-04-28T03:27:47.888Z,76.18
2023-04-28T03:30:14.461Z,76.26
2023-04-28T03:32:40.958Z,77.11
2023-04-28T03:35:08.224Z,77.54
2023-04-28T03:37:34.754Z,77.21
2023-04-28T03:40:01.476Z,76.89
2023-04-28T03:42:31.165Z,77.13
2023-04-28T03:45:20.438Z,76.50
2023-04-28T03:47:46.976Z,76.66
2023-04-28T03:50:13.420Z,76.37
2023-04-28T03:52:39.874Z,76.70
2023-04-28T03:55:07.328Z,76.88
2023-04-28T03:57:34.441Z,76.58
2023-04-28T04:00:00.873Z,76.85
2023-04-28T04:02:28.533Z,77.39
2023-04-28T04:04:55.305Z,78.51
2023-04-28T04:07:22.370Z,77.67
2023-04-28T04:09:48.931Z,76.95
2023-04-28T04:12:15.377Z,76.88
2023-04-28T04:14:42.502Z,76.36
2023-04-28T04:17:10.149Z,75.78
2023-04-28T04:19:36.601Z,76.65
2023-04-28T04:22:03.064Z,77.04
2023-04-28T04:24:30.122Z,78.10
2023-04-28T04:26:57.502Z,77.15
2023-04-28T04:29:31.631Z,76.96
2023-04-28T04:31:59.643Z,77.75
2023-04-28T04:34:26.085Z,78.18
2023-04-28T04:36:52.546Z,80.00
2023-04-28T04:39:19.648Z,80.59
2023-04-28T04:41:47.464Z,80.33
2023-04-28T04:44:30.164Z,80.20
2023-04-28T04:46:58.031Z,79.36
2023-04-28T04:49:25.915Z,79.38
2023-04-28T04:51:52.386Z,78.25
2023-04-28T04:54:19.214Z,78.21
2023-04-28T04:56:46.660Z,77.85
2023-04-28T04:59:17.397Z,77.09
2023-04-28T05:02:04.171Z,75.55
2023-04-28T05:04:30.699Z,74.96
2023-04-28T05:06:57.379Z,72.98
2023-04-28T05:09:23.946Z,70.45
2023-04-28T05:11:50.450Z,70.56
2023-04-28T05:14:17.614Z,69.23
2023-04-28T05:16:44.779Z,67.83
2023-04-28T05:19:16.122Z,67.01
2023-04-28T05:21:42.897Z,66.63
2023-04-28T05:24:09.414Z,64.71
2023-04-28T05:26:36.587Z,64.70
2023-04-28T05:29:07.100Z,64.32
2023-04-28T05:31:33.751Z,63.55
2023-04-28T05:34:00.236Z,62.87
2023-04-28T05:36:27.738Z,61.57
2023-04-28T05:38:54.177Z,61.89
2023-04-28T05:41:20.767Z,60.92
2023-04-28T05:43:47.719Z,60.56
2023-04-28T05:46:28.440Z,60.58
2023-04-28T05:48:58.077Z,58.73
2023-04-28T05:51:24.840Z,57.98
2023-04-28T05:53:51.598Z,58.04
2023-04-28T05:56:18.209Z,57.24
2023-04-28T05:58:45.217Z,56.87
2023-04-28T06:01:11.951Z,56.57
2023-04-28T06:03:41.724Z,55.69
2023-04-28T06:06:11.854Z,56.22
2023-04-28T06:08:38.947Z,56.02
2023-04-28T06:11:06.191Z,55.19
2023-04-28T06:13:33.004Z,55.54
2023-04-28T06:15:59.575Z,56.45
2023-04-28T06:18:27.029Z,56.45
2023-04-28T06:20:53.496Z,56.14
2023-04-28T06:23:20.076Z,56.69
2023-04-28T06:25:47.768Z,55.71
2023-04-28T06:28:14.960Z,56.20
2023-04-28T06:30:41.524Z,56.21
2023-04-28T06:33:08.031Z,55.28
2023-04-28T06:35:39.049Z,54.95
2023-04-28T06:38:06.172Z,55.00
2023-04-28T06:40:32.593Z,53.49
2023-04-28T06:43:01.065Z,53.77
2023-04-28T06:45:35.421Z,52.63
2023-04-28T06:48:02.292Z,51.87
2023-04-28T06:50:28.822Z,51.46
2023-04-28T06:52:55.300Z,50.72
2023-04-28T06:55:21.711Z,51.31
2023-04-28T06:57:48.153Z,50.51
2023-04-28T07:00:15.365Z,50.58
2023-04-28T07:02:42.107Z,50.33
2023-04-28T07:05:09.442Z,50.28
2023-04-28T07:07:38.557Z,49.69
2023-04-28T07:10:06.099Z,50.74
2023-04-28T07:12:32.561Z,50.06
2023-04-28T07:14:58.969Z,49.19
2023-04-28T07:17:25.464Z,49.09
2023-04-28T07:19:51.909Z,49.47
2023-04-28T07:22:18.334Z,49.07
2023-04-28T07:24:44.932Z,48.98
2023-04-28T07:27:11.341Z,49.56
2023-04-28T07:29:38.024Z,49.39
2023-04-28T07:32:06.851Z,48.55
2023-04-28T07:34:35.676Z,48.23
2023-04-28T07:37:03.131Z,49.12
2023-04-28T07:39:31.856Z,48.05
2023-04-28T07:41:58.984Z,48.02
2023-04-28T07:44:25.558Z,47.90
2023-04-28T07:46:53.400Z,47.63
2023-04-28T07:49:19.820Z,47.43
2023-04-28T07:51:46.350Z,46.67
2023-04-28T07:54:12.787Z,47.11
2023-04-28T07:56:39.238Z,46.58
2023-04-28T07:59:05.642Z,46.88
2023-04-28T08:01:32.112Z,46.67
2023-04-28T08:03:58.703Z,45.97
2023-04-28T08:06:25.579Z,46.05
2023-04-28T08:08:52.054Z,46.36
2023-04-28T08:11:19.548Z,45.43
2023-04-28T08:13:47.002Z,45.62
2023-04-28T08:16:13.539Z,46.21
2023-04-28T08:18:40.137Z,46.54
2023-04-28T08:21:06.715Z,46.39
2023-04-28T08:23:33.127Z,46.06
2023-04-28T08:25:59.540Z,46.26
2023-04-28T08:28:26.252Z,46.14
2023-04-28T08:30:54.442Z,45.65
2023-04-28T08:33:20.933Z,45.09
2023-04-28T08:35:47.337Z,45.53
2023-04-28T08:38:13.899Z,45.24
2023-04-28T08:40:42.627Z,44.75
2023-04-28T08:43:10.636Z,43.75
2023-04-28T08:45:42.899Z,43.76
2023-04-28T08:48:20.573Z,44.03
2023-04-28T08:50:51.015Z,43.63
2023-04-28T08:53:27.523Z,43.73
2023-04-28T08:55:58.123Z,43.30
2023-04-28T08:58:25.750Z,43.39
2023-04-28T09:00:53.630Z,43.69
2023-04-28T09:03:20.777Z,43.70
2023-04-28T09:05:47.788Z,44.25
2023-04-28T09:08:14.656Z,43.54
2023-04-28T09:10:41.202Z,43.32
2023-04-28T09:13:07.878Z,44.40
2023-04-28T09:15:37.307Z,43.98
2023-04-28T09:18:06.246Z,44.02
2023-04-28T09:20:34.023Z,43.97
2023-04-28T09:23:15.245Z,43.45
2023-04-28T09:25:56.428Z,43.93
2023-04-28T09:28:22.927Z,44.05
2023-04-28T09:30:49.347Z,43.93
2023-04-28T09:33:18.526Z,43.95
2023-04-28T09:35:45.804Z,43.96
2023-04-28T09:38:13.202Z,43.46
2023-04-28T09:41:01.533Z,43.63
2023-04-28T09:43:34.847Z,42.87
2023-04-28T09:46:03.452Z,44.29
2023-04-28T09:48:34.851Z,43.85
2023-04-28T09:51:03.156Z,43.55
2023-04-28T09:53:30.378Z,43.21
2023-04-28T09:55:58.714Z,43.54
2023-04-28T09:58:26.841Z,43.98
2023-04-28T10:00:57.912Z,43.19
2023-04-28T10:03:30.132Z,43.58
2023-04-28T10:05:58.830Z,43.05
2023-04-28T10:08:27.449Z,43.49
2023-04-28T10:10:54.744Z,42.70
2023-04-28T10:13:22.669Z,43.04
2023-04-28T10:15:49.923Z,42.94
2023-04-28T10:18:16.973Z,43.16
2023-04-28T10:20:49.447Z,42.73
2023-04-28T10:23:58.397Z,42.37
2023-04-28T10:26:51.524Z,42.15
2023-04-28T10:29:24.201Z,41.57
2023-04-28T10:32:19.706Z,42.07
2023-04-28T10:34:47.199Z,42.07
2023-04-28T10:37:15.057Z,42.39
2023-04-28T10:40:09.305Z,42.73
2023-04-28T10:42:52.796Z,41.83
2023-04-28T10:45:58.059Z,41.91
2023-04-28T10:48:33.428Z,42.33
2023-04-28T10:51:15.017Z,42.29
2023-04-28T10:53:51.257Z,42.12
2023-04-28T10:56:27.831Z,42.20
2023-04-28T10:58:58.358Z,42.26
2023-04-28T11:01:29.675Z,41.87
2023-04-28T11:04:13.885Z,42.46
2023-04-28T11:06:42.183Z,42.17
2023-04-28T11:09:14.170Z,41.72
2023-04-28T11:12:00.886Z,42.24
2023-04-28T11:14:33.115Z,41.99
2023-04-28T11:17:03.451Z,42.17
2023-04-28T11:19:35.634Z,41.83
2023-04-28T11:22:03.458Z,42.37
2023-04-28T11:24:31.080Z,42.17
2023-04-28T11:26:58.856Z,42.46
2023-04-28T11:29:39.634Z,41.69
2023-04-28T11:32:08.561Z,42.50
2023-04-28T11:34:36.277Z,42.28
2023-04-28T11:37:03.313Z,42.61
2023-04-28T11:39:31.563Z,42.27
2023-04-28T11:41:59.653Z,42.51
2023-04-28T11:44:28.155Z,42.26
2023-04-28T11:46:57.378Z,42.14
2023-04-28T11:49:24.625Z,42.31
2023-04-28T11:51:52.535Z,42.59
2023-04-28T11:54:23.976Z,42.15
2023-04-28T11:56:51.303Z,41.86
2023-04-28T11:59:20.616Z,41.85
2023-04-28T12:01:49.907Z,41.96
2023-04-28T12:04:39.201Z,41.77
2023-04-28T12:07:13.374Z,41.99
2023-04-28T12:09:41.970Z,41.68
2023-04-28T12:12:10.068Z,41.60
2023-04-28T12:14:56.274Z,41.81
2023-04-28T12:17:26.786Z,41.83
2023-04-28T12:19:57.944Z,42.01
2023-04-28T12:22:25.419Z,42.50
2023-04-28T12:25:05.395Z,41.92
2023-04-28T12:27:32.225Z,42.08
2023-04-28T12:29:58.638Z,41.96
2023-04-28T12:32:43.500Z,41.71
2023-04-28T12:35:09.953Z,42.50
2023-04-28T12:37:38.319Z,41.94
2023-04-28T12:40:08.476Z,42.09
2023-04-28T12:42:35.793Z,42.43
2023-04-28T12:45:02.281Z,42.13
2023-04-28T12:47:29.111Z,42.65
2023-04-28T12:49:55.539Z,41.89
2023-04-28T12:52:22.297Z,41.84
2023-04-28T12:54:49.264Z,41.96
2023-04-28T12:57:19.673Z,42.10
2023-04-28T12:59:49.019Z,42.00
2023-04-28T13:02:15.514Z,41.77
2023-04-28T13:04:46.318Z,41.98
2023-04-28T13:07:13.091Z,42.03
2023-04-28T13:09:39.550Z,41.88
2023-04-28T13:12:06.040Z,41.85
2023-04-28T13:14:32.813Z,41.61
2023-04-28T13:16:59.222Z,41.71
2023-04-28T13:19:25.767Z,42.15
2023-04-28T13:21:52.186Z,42.20
2023-04-28T13:24:18.605Z,42.71
2023-04-28T13:26:45.199Z,42.35
2023-04-28T13:29:11.721Z,42.54
2023-04-28T13:31:38.413Z,42.48
2023-04-28T13:34:06.051Z,41.89
2023-04-28T13:36:33.152Z,42.04
2023-04-28T13:39:01.647Z,42.09
2023-04-28T13:41:28.729Z,42.67
2023-04-28T13:43:55.158Z,42.79
2023-04-28T13:46:21.719Z,43.17
2023-04-28T13:48:48.457Z,43.57
2023-04-28T13:51:15.058Z,44.27
2023-04-28T13:53:41.464Z,45.25
2023-04-28T13:56:08.276Z,44.98
2023-04-28T13:58:34.847Z,45.00
2023-04-28T14:01:01.308Z,45.53
2023-04-28T14:03:27.893Z,46.24
2023-04-28T14:05:56.350Z,46.90
2023-04-28T14:08:24.871Z,47.19
2023-04-28T14:10:52.322Z,46.66
2023-04-28T14:13:19.542Z,46.92
2023-04-28T14:15:57.851Z,47.05
2023-04-28T14:18:25.420Z,47.03
2023-04-28T14:20:51.956Z,47.00
2023-04-28T14:23:18.405Z,46.98
2023-04-28T14:25:44.818Z,47.09
2023-04-28T14:28:11.709Z,46.90
2023-04-28T14:30:38.262Z,46.70
2023-04-28T14:33:04.850Z,47.08
2023-04-28T14:35:31.978Z,47.58
2023-04-28T14:37:58.404Z,47.59
2023-04-28T14:40:25.582Z,48.08
2023-04-28T14:42:52.764Z,49.51
2023-04-28T14:45:19.210Z,49.95
2023-04-28T14:47:45.746Z,51.05
2023-04-28T14:50:13.979Z,51.54
2023-04-28T14:52:41.183Z,52.33
2023-04-28T14:55:08.112Z,53.71
2023-04-28T14:57:35.237Z,54.79
2023-04-28T15:00:02.455Z,54.64
2023-04-28T15:02:29.563Z,55.50
2023-04-28T15:04:57.199Z,56.03
2023-04-28T15:07:24.836Z,55.88
2023-04-28T15:09:51.416Z,57.58
2023-04-28T15:12:17.876Z,56.99
2023-04-28T15:14:44.268Z,57.25
2023-04-28T15:17:10.765Z,57.48
2023-04-28T15:19:37.827Z,58.25
2023-04-28T15:22:04.382Z,59.35
2023-04-28T15:24:31.077Z,60.93
2023-04-28T15:26:58.607Z,59.79
2023-04-28T15:29:25.473Z,60.38
2023-04-28T15:31:51.925Z,59.36
2023-04-28T15:34:18.525Z,59.77
2023-04-28T15:36:45.374Z,61.33
2023-04-28T15:39:11.814Z,61.58
2023-04-28T15:41:38.238Z,61.63
2023-04-28T15:44:04.951Z,63.33
2023-04-28T15:46:31.770Z,64.18
2023-04-28T15:48:58.746Z,63.79
2023-04-28T15:51:25.393Z,63.34
2023-04-28T15:53:52.049Z,64.04
2023-04-28T15:56:19.721Z,64.79
2023-04-28T15:58:47.414Z,65.04
2023-04-28T16:01:14.122Z,66.59
2023-04-28T16:03:40.885Z,66.52
2023-04-28T16:06:08.218Z,66.83
2023-04-28T16:08:37.700Z,66.50
2023-04-28T16:11:04.355Z,66.96
2023-04-28T16:13:36.946Z,66.88
2023-04-28T16:16:04.095Z,66.95
2023-04-28T16:18:30.826Z,66.88
2023-04-28T16:20:57.522Z,67.22
2023-04-28T16:23:24.054Z,66.36
2023-04-28T16:25:50.830Z,67.32
2023-04-28T16:28:17.495Z,66.28
2023-04-28T16:30:43.958Z,66.45
2023-04-28T16:33:10.602Z,66.70
2023-04-28T16:35:37.203Z,66.74
2023-04-28T16:38:03.894Z,66.79
2023-04-28T16:40:30.587Z,67.13
2023-04-28T16:42:57.549Z,67.43
2023-04-28T16:45:24.129Z,67.28
2023-04-28T16:47:50.660Z,67.27
2023-04-28T16:50:17.691Z,68.04
2023-04-28T16:52:44.133Z,68.33
2023-04-28T16:55:10.696Z,69.21
2023-04-28T16:57:37.477Z,68.93
2023-04-28T17:00:06.132Z,69.08
2023-04-28T17:02:33.317Z,70.29
2023-04-28T17:05:00.008Z,68.96
2023-04-28T17:07:26.721Z,70.03
2023-04-28T17:09:53.454Z,71.34
2023-04-28T17:12:20.972Z,73.33
2023-04-28T17:14:47.554Z,75.37
2023-04-28T17:17:13.992Z,76.11
2023-04-28T17:19:41.618Z,74.47
2023-04-28T17:22:08.298Z,75.99
2023-04-28T17:24:35.029Z,74.56
2023-04-28T17:27:01.746Z,74.88
2023-04-28T17:29:28.203Z,74.72
2023-04-28T17:31:54.918Z,76.94
2023-04-28T17:34:21.497Z,76.11
2023-04-28T17:36:48.082Z,75.49
2023-04-28T17:39:16.387Z,76.59
2023-04-28T17:41:43.727Z,75.92
2023-04-28T17:44:10.167Z,75.79
2023-04-28T17:46:38.465Z,77.24
2023-04-28T17:49:05.333Z,77.17
2023-04-28T17:51:32.411Z,76.61
2023-04-28T17:53:59.203Z,75.72
2023-04-28T17:56:26.314Z,75.96
2023-04-28T17:58:52.864Z,76.78
2023-04-28T18:01:19.545Z,78.86
2023-04-28T18:03:46.282Z,78.36
2023-04-28T18:06:13.731Z,77.90
2023-04-28T18:08:40.905Z,78.34
2023-04-28T18:11:09.895Z,77.97
2023-04-28T18:13:36.496Z,79.09
2023-04-28T18:16:04.933Z,79.70
2023-04-28T18:18:34.745Z,82.54
2023-04-28T18:21:02.377Z,81.05
2023-04-28T18:23:30.328Z,82.86
2023-04-28T18:25:57.035Z,82.79
2023-04-28T18:28:23.454Z,84.04
2023-04-28T18:30:50.033Z,83.74
2023-04-28T18:33:23.036Z,84.13
2023-04-28T18:35:58.457Z,83.24
2023-04-28T18:38:24.877Z,83.62
2023-04-28T18:40:51.261Z,83.96
2023-04-28T18:43:17.646Z,82.96
2023-04-28T18:45:44.599Z,82.62
2023-04-28T18:48:11.543Z,82.90
2023-04-28T18:50:38.298Z,83.18
2023-04-28T18:53:05.070Z,83.50
2023-04-28T18:55:34.460Z,83.41
2023-04-28T18:58:02.153Z,82.75
2023-04-28T19:00:28.875Z,83.05
2023-04-28T19:02:55.623Z,83.05
2023-04-28T19:05:22.389Z,83.05
2023-04-28T19:07:48.889Z,83.57
2023-04-28T19:10:15.677Z,82.93
2023-04-28T19:12:42.119Z,82.96
2023-04-28T19:15:08.742Z,83.28
2023-04-28T19:17:35.234Z,82.60
2023-04-28T19:20:01.809Z,81.60
2023-04-28T19:22:33.121Z,81.24
2023-04-28T19:25:00.220Z,81.11
2023-04-28T19:27:36.029Z,81.07
2023-04-28T19:30:04.025Z,81.30
2023-04-28T19:32:30.670Z,80.63
2023-04-28T19:34:57.126Z,80.32
2023-04-28T19:37:25.125Z,80.47
2023-04-28T19:39:51.827Z,80.35
2023-04-28T19:42:18.574Z,80.67
2023-04-28T19:44:46.554Z,81.21
2023-04-28T19:47:13.341Z,81.01
2023-04-28T19:49:42.110Z,81.54
2023-04-28T19:52:10.196Z,81.20
2023-04-28T19:54:38.764Z,80.62
2023-04-28T19:57:05.365Z,81.65
2023-04-28T19:59:32.004Z,81.55
2023-04-28T20:01:58.703Z,82.16
2023-04-28T20:04:26.004Z,81.87
2023-04-28T20:06:52.619Z,81.74
2023-04-28T20:09:19.090Z,81.25
2023-04-28T20:11:45.618Z,82.52
2023-04-28T20:14:12.248Z,80.89
2023-04-28T20:16:38.679Z,81.18
2023-04-28T20:19:05.087Z,81.18
2023-04-28T20:21:32.782Z,81.55
2023-04-28T20:23:59.193Z,81.75
2023-04-28T20:26:25.632Z,81.71
2023-04-28T20:28:54.051Z,82.18
2023-04-28T20:31:20.496Z,83.11
2023-04-28T20:33:46.953Z,83.74
2023-04-28T20:36:13.380Z,83.17
2023-04-28T20:38:39.777Z,83.16
2023-04-28T20:41:07.755Z,82.84
2023-04-28T20:43:34.220Z,83.94
2023-04-28T20:46:00.654Z,82.21
2023-04-28T20:48:28.981Z,82.53
2023-04-28T20:50:56.460Z,83.00
2023-04-28T20:53:22.894Z,83.56
2023-04-28T20:55:52.110Z,83.15
2023-04-28T20:58:18.978Z,82.55
2023-04-28T21:00:45.470Z,82.13
2023-04-28T21:03:23.489Z,82.55
2023-04-28T21:05:50.263Z,82.66
2023-04-28T21:08:17.054Z,82.28
2023-04-28T21:10:43.469Z,82.15
2023-04-28T21:13:10.262Z,82.72
2023-04-28T21:15:43.043Z,82.73
2023-04-28T21:18:09.626Z,82.76
2023-04-28T21:20:36.170Z,82.22
2023-04-28T21:23:02.815Z,82.34
2023-04-28T21:25:29.328Z,82.14
2023-04-28T21:27:55.770Z,82.00
2023-04-28T21:30:22.471Z,82.83
2023-04-28T21:32:49.099Z,82.62
2023-04-28T21:35:16.284Z,82.67
2023-04-28T21:37:42.983Z,82.86
2023-04-28T21:40:09.939Z,82.22
2023-04-28T21:42:36.390Z,82.31
2023-04-28T21:45:02.954Z,82.15
2023-04-28T21:47:29.885Z,83.06
2023-04-28T21:49:56.392Z,84.64
2023-04-28T21:52:22.803Z,84.99
2023-04-28T21:54:49.211Z,84.50
2023-04-28T21:57:15.829Z,84.40
2023-04-28T21:59:42.350Z,85.04
2023-04-28T22:02:09.096Z,84.45
2023-04-28T22:04:36.033Z,84.39
2023-04-28T22:07:02.659Z,85.27
2023-04-28T22:09:29.167Z,83.63
2023-04-28T22:11:55.596Z,84.54
2023-04-28T22:14:39.688Z,84.96
2023-04-28T22:17:07.686Z,85.08
2023-04-28T22:19:34.197Z,84.74
2023-04-28T22:22:00.723Z,85.70
2023-04-28T22:24:27.807Z,86.26
2023-04-28T22:26:54.885Z,85.94
2023-04-28T22:29:21.602Z,85.67
2023-04-28T22:31:48.095Z,85.40
2023-04-28T22:34:14.572Z,86.25
2023-04-28T22:36:41.540Z,86.57
2023-04-28T22:39:08.244Z,86.55
2023-04-28T22:41:34.650Z,86.07
2023-04-28T22:44:01.042Z,85.88
2023-04-28T22:46:28.813Z,85.30
2023-04-28T22:48:55.786Z,85.90
2023-04-28T22:51:22.219Z,85.10
2023-04-28T22:53:48.672Z,85.29
2023-04-28T22:56:15.819Z,85.31
2023-04-28T22:58:42.395Z,85.99
2023-04-28T23:01:09.116Z,85.94
2023-04-28T23:03:35.688Z,86.57
2023-04-28T23:06:02.207Z,85.49
2023-04-28T23:08:28.612Z,87.22
2023-04-28T23:10:57.005Z,86.94
2023-04-28T23:13:23.531Z,86.45
2023-04-28T23:15:49.979Z,87.37
2023-04-28T23:18:16.443Z,87.06
2023-04-28T23:20:42.856Z,86.88
2023-04-28T23:23:09.297Z,87.23
2023-04-28T23:25:36.374Z,86.97
2023-04-28T23:28:03.204Z,86.91
2023-04-28T23:30:29.725Z,86.44
2023-04-28T23:32:56.500Z,86.86
2023-04-28T23:35:22.958Z,86.54
2023-04-28T23:37:49.371Z,86.88
2023-04-28T23:40:16.013Z,86.02
2023-04-28T23:42:42.448Z,86.41
2023-04-28T23:45:09.773Z,87.01
2023-04-28T23:47:36.309Z,86.73
2023-04-28T23:50:03.434Z,88.82
2023-04-28T23:52:29.892Z,88.00
2023-04-28T23:54:56.333Z,86.86
2023-04-28T23:57:23.184Z,86.92
2023-04-28T23:59:49.831Z,86.31
